KRWI/RWI METAR and TAF weather

Enter ICAO airport designator
Station Type Date Time Source
KRWI METAR 2020/04/05 14:53 UTC NOAA

KRWI 051453Z AUTO 07003KT 10SM CLR 15/06 A3015 RMK AO2 SLP209 T01500056 51012


Station Type Date Time Source
KRWI Decoded METAR 2020/04/05 14:53 UTC NOAA

ROCKY MOUNT-WILSON AIRPORT, NC, United States (KRWI) 35-51N 077-54W 47M
Apr 05, 2020 - 10:53 AM EDT / 2020.04.05 1453 UTC
Wind: from the ENE (070 degrees) at 3 MPH (3 KT):0
Visibility: 10 mile(s):0
Sky conditions: clear
Temperature: 59.0 F (15.0 C)
Dew Point: 42.1 F (5.6 C)
Relative Humidity: 53%
Pressure (altimeter): 30.15 in. Hg (1020 hPa)
Pressure tendency: 0.04 inches (1.2 hPa) higher than three hours ago
ob: KRWI 051453Z AUTO 07003KT 10SM CLR 15/06 A3015 RMK AO2 SLP209 T01500056 51012
cycle: 15

Station Type Date Time Source
KRWI TAF 2020/04/05 13:45 UTC NOAA

TAF
AMD KRWI 051241Z 0513/0612 09004KT P6SM SCT250

Example: see airport list